の過去48時間の天気

Arhangel'Sk

現在時刻: 1/22 03:47 MSK (1/22 00:47 UTC) 以下の時間は現地時間です。

過去48時間のMETAR気象情報
時間 風向 風速(m/s) 視程 気温(℃) 湿度(%) 気圧(hPa) 天気現象
22 03:00 西北西 4 2400m -1 100 979 しゅう雪
22 02:30 西北西 3 8000m -1 93 979 弱いしゅう雪
22 02:00 西北西 3 10km以上 -1 93 979
22 01:30 西北西 3 6000m -1 93 979 弱いしゅう雪
22 01:00 西北西 3 10km以上 -2 100 979
22 00:30 西北西 3 10km以上 -2 100 980
22 00:00 西北西 3 10km以上 -2 100 980
21 23:30 西北西 4 10km以上 -2 100 980
21 23:00 西北西 4 10km以上 -2 100 980
21 22:30 西北西 4 10km以上 -3 100 980
21 22:00 北西 3 10km以上 -5 100 980
21 21:30 西北西 3 10km以上 -5 100 980
21 21:00 北西 4 10km以上 -4 100 980
21 20:30 北西 4 10km以上 -3 100 980
21 20:00 北西 4 10km以上 -2 93 980
21 19:30 北西 4 10km以上 -2 93 980
21 19:00 北西 5 10km以上 -1 93 981
21 18:30 北西 7 10km以上 -1 93 981 弱いしゅう雪
21 18:00 北西 7 10km以上 -1 100 980 弱いしゅう雪
21 17:30 北西 7 10km以上 -1 100 980 弱いしゅう雪
21 17:00 北北西 7 10km以上 0 93 980 弱いしゅう雪
21 16:30 北北西 8 10km以上 0 100 979 弱いしゅう雪
21 16:00 北北西 7 9000m 0 100 979 弱いしゅう雪
21 15:30 北北西 7 4600m 0 100 978 弱いしゅう雪
21 15:00 北北西 6 1600m 0 100 978 しゅう雪 雨
21 14:30 北北西 6 1100m 0 100 977 強いしゅう雪 雨
21 14:00 北西 5 2200m 0 100 977 弱いしゅう雪 雨
21 13:30 西北西 6 2200m 0 100 976 しゅう雪 雨
21 13:00 西北西 6 1900m 0 100 976 しゅう雪 雨
21 12:30 西 4 2400m 1 93 977 弱いしゅう雪 弱いしゅう雨
21 12:00 西南西 3 5000m 0 100 977 弱いしゅう雪 弱いしゅう雨
21 11:30 南西 3 3200m 0 100 977 弱いしゅう雪 弱いしゅう雨
21 11:00 南南西 3 6000m 0 100 978 弱いしゅう雪 弱いしゅう雨
21 10:30 南南西 3 3800m 0 100 979 弱いしゅう雪 弱いしゅう雨
21 10:00 南南西 3 1100m 0 100 980 しゅう雪
21 09:30 3 1100m 0 100 980 強いしゅう雪
21 09:00 3 1300m 0 93 981 しゅう雪
21 08:30 2 1200m 0 93 982 しゅう雪
21 08:00 南南西 2 2100m -1 100 983 弱い雪
21 07:30 2 2600m -1 100 984 弱い雪
21 07:00 南南西 2 8000m -1 100 985 弱い雪
21 06:30 南南西 2 10km以上 -1 100 986 弱い雪
21 06:00 南南西 2 9000m -1 93 987 弱い雪
21 05:30 南南西 2 10km以上 -1 93 988 弱い雪
21 05:00 南西 3 7000m -1 93 989 弱い雪
21 04:30 南西 4 6000m -1 93 990 弱い氷霧雨
21 04:00 南西 3 10km以上 -2 100 991 弱い雪
21 03:30 南西 3 10km以上 -2 100 992 弱い雪
21 03:00 南西 3 9000m -2 100 992 弱い雪
21 02:30 南西 2 9000m -2 100 993 弱い雪
21 02:00 南西 3 9000m -2 100 994 弱い雪
21 01:30 南西 3 10km以上 -2 93 995 弱い雪
21 01:00 南西 3 10km以上 -2 100 996 弱い雪
21 00:30 南西 3 9000m -2 100 997 弱い雪
21 00:00 南西 3 9000m -2 100 997 弱い雪
20 23:30 南西 3 9000m -2 100 998 弱い雪
20 23:00 南西 3 6000m -2 100 998 弱い雪
20 22:30 南南西 2 9000m -2 93 999 弱い雪
20 22:00 南西 2 10km以上 -3 100 1000 弱い雪
20 21:30 3 5000m -4 100 1001 弱い雪
20 21:00 3 9000m -4 93 1001 弱い雪
20 20:30 2 10km以上 -5 100 1002
20 20:00 3 10km以上 -5 100 1003
20 19:30 3 10km以上 -5 93 1004
20 19:00 3 10km以上 -6 100 1005 弱い雪
20 18:30 3 10km以上 -6 93 1006 弱い雪
20 18:00 3 10km以上 -7 93 1006 弱い雪
20 17:30 2 10km以上 -7 93 1007 弱い雪
20 17:00 2 9000m -8 93 1007 弱い雪
20 16:30 3 8000m -8 93 1008 弱い雪
20 16:00 3 10km以上 -8 93 1009 弱い雪
20 15:30 2 10km以上 -9 92 1009
20 15:00 2 10km以上 -9 92 1010
20 14:30 2 8000m -9 92 1010
20 14:00 2 8000m -10 92 1010
20 13:30 不定 1 8000m -10 92 1011
20 13:00 静穏 0 1000m -10 85 1011 氷霧
20 12:30 静穏 0 400m -11 92 1012 氷霧
20 12:00 不定 1 1100m -11 92 1012 氷霧
20 11:30 不定 1 8000m -11 92 1012
20 11:00 南東 2 8000m -12 92 1013
20 10:30 東南東 2 10km以上 -12 92 1013
20 10:00 1 8000m -13 92 1013 弱い雪
20 09:30 不定 1 9000m -13 92 1013 弱い雪
20 09:00 2 10km以上 -13 92 1014 弱い雪
20 08:30 1 8000m -13 92 1014 弱い雪
20 08:00 1 8000m -13 92 1014
20 07:30 東南東 2 10km以上 -13 92 1014
20 07:00 東南東 1 10km以上 -13 92 1014
20 06:30 東南東 3 10km以上 -13 92 1014
20 06:00 東南東 3 10km以上 -13 85 1014
20 05:30 3 10km以上 -13 85 1015
20 05:00 2 10km以上 -13 85 1015
20 04:30 3 10km以上 -13 85 1015
20 04:00 3 10km以上 -13 85 1016
ULAA 220000Z 29004MPS 2400 1400W SHSN OVC005CB M01/M01 Q0979 R26/590336 NOSIG RMK QBB150 QFE733/0977
ULAA 212330Z 30003MPS 8000 -SHSN OVC011CB M01/M02 Q0979 R26/590334 NOSIG RMK QFE733/0977
ULAA 212300Z 30003MPS 9999 OVC011CB M01/M02 Q0979 R26/590334 NOSIG RMK QFE733/0978
ULAA 212230Z 30003MPS 6000 -SHSN OVC008CB M01/M02 Q0979 R26/590334 NOSIG RMK QFE733/0978
ULAA 212200Z 30003MPS 9999 BKN012 M02/M02 Q0979 R26/390135 NOSIG RMK QFE733/0978
ULAA 212130Z 29003MPS 9999 OVC014 M02/M02 Q0980 R26/390135 NOSIG RMK QFE733/0978
ULAA 212100Z 29003MPS 9999 BKN007 M02/M02 Q0980 R26/390135 NOSIG RMK QFE733/0978
ULAA 212030Z 30004MPS 9999 BKN009 M02/M02 Q0980 R26/390135 NOSIG RMK QFE733/0978
ULAA 212000Z 30004MPS 9999 BKN008 M02/M02 Q0980 R26/390135 NOSIG RMK QFE733/0978
ULAA 211930Z 30004MPS 9999 BKN010 M03/M03 Q0980 R26/390135 NOSIG RMK QFE733/0978
ULAA 211900Z 31003MPS 9999 SCT020 M05/M05 Q0980 R26/390135 NOSIG RMK QFE733/0978
ULAA 211830Z 30003MPS 9999 SCT020 M05/M05 Q0980 R26/390135 NOSIG RMK QFE734/0978
ULAA 211800Z 31004MPS 9999 SCT020 M04/M04 Q0980 R26/690539 NOSIG RMK QFE734/0978
ULAA 211730Z 31004MPS 9999 SCT020 M03/M03 Q0980 R26/690539 NOSIG RMK QFE734/0979
ULAA 211700Z 31004MPS 9999 SCT020 M02/M03 Q0980 R26/690539 NOSIG RMK QFE734/0978
ULAA 211630Z 32004MPS 9999 BKN022 M02/M03 Q0980 R26/690539 NOSIG RMK QFE734/0978
ULAA 211600Z 32005MPS 9999 BKN018CB M01/M02 Q0981 R26/690539 NOSIG RMK QFE734/0979
ULAA 211530Z 32007MPS 290V350 9999 -SHSN OVC016CB M01/M02 Q0981 R26/690539 NOSIG RMK QFE734/0979
ULAA 211500Z 32007MPS 290V350 9999 -SHSN OVC012CB M01/M01 Q0980 R26/690539 NOSIG RMK QFE734/0979
ULAA 211430Z 32007MPS 290V040 9999 -SHSN OVC010CB M01/M01 Q0980 R26/690539 NOSIG RMK QFE734/0978
ULAA 211400Z 33007MPS 290V010 9999 -SHSN OVC010CB M00/M01 Q0980 R26/690539 NOSIG RMK QFE733/0978
ULAA 211330Z 33008G13MPS 300V010 9999 -SHSN OVC009CB M00/M00 Q0979 R26/690539 NOSIG RMK QFE733/0977
ULAA 211300Z 33007G12MPS 300V080 9000 -SHSN OVC008CB M00/M00 Q0979 R26/690539 NOSIG RMK QFE732/0977
ULAA 211230Z 33007G12MPS 300V020 4600 -SHSN OVC007CB M00/M00 Q0978 R26/590736 NOSIG RMK QFE732/0976
ULAA 211200Z 33006MPS 290V020 1600 1200E R26/1300N SHSNRA OVC004CB 00/00 Q0978 R26/590736 NOSIG RMK QBB140 QFE732/0976
ULAA 211130Z 33006MPS 300V360 1100 0900E R26/1100N +SHSNRA VV004 00/M00 Q0977 R26/590736 NOSIG RMK QBB130 QFE731/0975
ULAA 211100Z 32005MPS 290V350 2200 R26/1600D -SHSNRA OVC004CB 00/00 Q0977 R26/590736 NOSIG RMK QBB140 QFE731/0975
ULAA 211030Z 30006MPS 2200 1300W SHSNRA OVC004CB 00/00 Q0976 R26/590736 NOSIG RMK QBB140 QFE731/0975
ULAA 211000Z 30006MPS 1900 1300W R26/1900U SHSNRA OVC004CB 00/00 Q0976 R26/590535 NOSIG RMK QBB130 QFE731/0975
ULAA 210930Z 27004MPS 240V300 2400 -SHSNRA OVC005CB 01/00 Q0977 R26/590535 NOSIG RMK QBB150 QFE731/0975
ULAA 210900Z 25003MPS 210V280 5000 -SHSNRA OVC005CB 00/00 Q0977 R26/590535 NOSIG RMK QBB160 QFE731/0975
ULAA 210830Z 23003MPS 3200 -SHSNRA OVC004CB 00/00 Q0977 R08/590533 TEMPO 0500 +SHSNRA BKN003CB RMK QBB140 QFE732/0976
ULAA 210800Z 20003MPS 160V230 6000 -SHSNRA OVC005CB 00/00 Q0978 R08/590533 NOSIG RMK QBB150 QFE733/0977
ULAA 210730Z 20003MPS 170V230 3800 -SHSNRA OVC004CB 00/M00 Q0979 R08/590533 NOSIG RMK QBB120 QFE733/0978
ULAA 210700Z 20003MPS 1100 1000W R08/1100D SHSN VV003 M00/M00 Q0980 R08/590533 NOSIG RMK QBB100 QFE734/0978
ULAA 210630Z 19003MPS 160V220 1100 0900W R08/1000N +SHSN VV003 M00/M00 Q0980 R08/590533 NOSIG RMK QBB090 QFE734/0979
ULAA 210600Z 19003MPS 150V220 1300 R08/1300N SHSN OVC003CB M00/M01 Q0981 R08/590334 NOSIG RMK QBB100 QFE735/0980
ULAA 210530Z 19002MPS 160V240 1200 1100W R26/P2000U SHSN VV003 M00/M01 Q0982 R26/590334 NOSIG RMK QBB110 QFE735/0980
ULAA 210500Z 20002MPS 140V250 2100 -SN OVC005 M01/M01 Q0983 R26/590334 NOSIG RMK QBB150 QFE736/0981
ULAA 210430Z 19002MPS 140V240 2600 -SN OVC007 M01/M01 Q0984 R26/590334 NOSIG RMK QFE737/0982
ULAA 210400Z 21002MPS 150V250 8000 -SN OVC007 M01/M01 Q0985 R26/590334 NOSIG RMK QFE738/0984
ULAA 210330Z 20002MPS 160V250 9999 -SN OVC007 M01/M01 Q0986 R26/490335 NOSIG RMK QFE738/0984
ULAA 210300Z 21002MPS 170V270 9000 -SN OVC008 M01/M02 Q0987 R26/490335 NOSIG RMK QFE739/0985
ULAA 210230Z 20002MPS 150V250 9999 -SN OVC008 M01/M02 Q0988 R26/490335 NOSIG RMK QFE740/0986
ULAA 210200Z 22003MPS 180V260 7000 -SN OVC007 M01/M02 Q0989 R26/490337 NOSIG RMK QFE741/0988
ULAA 210130Z 22004MPS 170V260 6000 -FZDZ OVC006 M01/M02 Q0990 R26/490337 NOSIG RMK QBB180 QFE741/0988
ULAA 210100Z 22003MPS 160V280 9999 -SN OVC010 M02/M02 Q0991 R26/490337 NOSIG RMK QFE742/0989
ULAA 210030Z 22003MPS 170V260 9999 -SN OVC010 M02/M02 Q0992 R26/490337 NOSIG RMK QFE742/0990
ULAA 210000Z 22003MPS 150V270 9000 -SN OVC009 M02/M02 Q0992 R26/490337 NOSIG RMK QFE743/0990
ULAA 202330Z 22002MPS 150V270 9000 -SN OVC009 M02/M02 Q0993 R26/490337 NOSIG RMK QFE743/0991
ULAA 202300Z 23003MPS 180V270 9000 -SN OVC009 M02/M02 Q0994 R26/490337 NOSIG RMK QFE744/0992
ULAA 202230Z 23003MPS 160V270 9999 -SN OVC009 M02/M03 Q0995 R26/490343 NOSIG RMK QFE745/0993
ULAA 202200Z 22003MPS 170V260 9999 -SN OVC009 M02/M02 Q0996 R26/490343 NOSIG RMK QFE745/0994
ULAA 202130Z 23003MPS 150V260 9000 -SN OVC009 M02/M02 Q0997 R26/490343 NOSIG RMK QFE746/0995
ULAA 202100Z 22003MPS 180V260 9000 -SN OVC010 M02/M02 Q0997 R26/490343 NOSIG RMK QFE746/0995
ULAA 202030Z 22003MPS 170V250 9000 -SN OVC009 M02/M02 Q0998 R26/490343 NOSIG RMK QFE747/0996
ULAA 202000Z 22003MPS 170V260 6000 -SN OVC009 M02/M02 Q0998 R26/490343 NOSIG RMK QFE747/0997
ULAA 201930Z 21002MPS 160V260 9000 -SN OVC010 M02/M03 Q0999 R26/490343 NOSIG RMK QFE748/0997
ULAA 201900Z 22002MPS 170V260 9999 -SN OVC010 M03/M03 Q1000 R26/490343 NOSIG RMK QFE748/0998
ULAA 201830Z 18003MPS 5000 -SN OVC010 M04/M04 Q1001 R08/490343 NOSIG RMK QFE750/1000
ULAA 201800Z 18003MPS 9000 -SN SCT007 OVC016 M04/M05 Q1001 R08/490343 NOSIG RMK QFE750/1000
ULAA 201730Z 18002MPS 9999 SCT007 OVC020 M05/M05 Q1002 R08/490343 NOSIG RMK QFE751/1001
ULAA 201700Z 18003MPS 150V210 9999 SCT007 OVC020 M05/M05 Q1003 R08/490343 NOSIG RMK QFE751/1002
ULAA 201630Z 18003MPS 9999 SCT007 OVC020 M05/M06 Q1004 R08/490343 NOSIG RMK QFE752/1003
ULAA 201600Z 18003MPS 9999 -SN OVC007 M06/M06 Q1005 R08/490343 NOSIG RMK QFE753/1004
ULAA 201530Z 18003MPS 140V200 9999 -SN OVC007 M06/M07 Q1006 R08/490343 NOSIG RMK QFE753/1004
ULAA 201500Z 18003MPS 140V200 9999 -SN OVC007 M07/M08 Q1006 R08/490339 NOSIG RMK QFE754/1005
ULAA 201430Z 18002MPS 130V210 9999 -SN OVC008 M07/M08 Q1007 R08/490339 NOSIG RMK QFE754/1006
ULAA 201400Z 18002MPS 140V210 9000 -SN OVC009 M08/M09 Q1007 R08/490339 NOSIG RMK QFE754/1006
ULAA 201330Z 18003MPS 150V220 8000 -SN OVC010 M08/M09 Q1008 R08/490145 NOSIG RMK QFE755/1007
ULAA 201300Z 18003MPS 140V210 9999 -SN OVC011 M08/M09 Q1009 R08/490145 NOSIG RMK QFE755/1007
ULAA 201230Z 18002MPS 9999 OVC009 M09/M10 Q1009 R08/490145 NOSIG RMK QFE756/1008
ULAA 201200Z 18002MPS 150V210 9999 OVC006 M09/M10 Q1010 R08/490145 NOSIG RMK QBB180 QFE756/1008
ULAA 201130Z 18002MPS 8000 OVC004 M09/M10 Q1010 R08/490145 NOSIG RMK QBB140 QFE757/1009
ULAA 201100Z 18002MPS 8000 OVC004 M10/M11 Q1010 R08/490145 NOSIG RMK QBB140 QFE757/1009
ULAA 201030Z VRB01MPS 8000 OVC004 M10/M11 Q1011 R08/490145 NOSIG RMK QBB140 QFE757/1010
ULAA 201000Z 00000MPS 1000 0650S R08/1200N FZFG VV003 M10/M12 Q1011 R08/490145 NOSIG RMK QBB090 QFE757/1010
ULAA 200930Z 00000MPS 0400 0300W R08/0600N FZFG VV002 M11/M12 Q1012 R08/490145 NOSIG RMK QBB080 QFE758/1011
ULAA 200900Z VRB01MPS 1100 0400W R08/0650D FZFG VV003 M11/M12 Q1012 R08/490145 NOSIG RMK QBB100 QFE758/1011
ULAA 200830Z VRB01MPS 8000 OVC006 M11/M12 Q1012 R08/490145 NOSIG RMK QBB190 QFE758/1011
ULAA 200800Z 13002MPS 8000 OVC006 M12/M13 Q1013 R08/490145 NOSIG RMK QBB190 QFE758/1011
ULAA 200730Z 11002MPS 9999 OVC006 M12/M13 Q1013 R08/490145 NOSIG RMK QBB190 QFE759/1012
ULAA 200700Z 10001MPS 8000 -SN OVC006 M13/M14 Q1013 R08/490145 NOSIG RMK QBB190 QFE759/1012
ULAA 200630Z VRB01MPS 9000 -SN OVC006 M13/M14 Q1013 R08/490145 TEMPO BKN003 RMK QBB180 QFE759/1012
ULAA 200600Z 10002MPS 9999 -SN OVC006 M13/M14 Q1014 R08/490145 TEMPO BKN003 RMK QBB180 QFE759/1012
ULAA 200530Z 10001MPS 8000 -SN OVC007 M13/M14 Q1014 R08/490145 NOSIG RMK QFE760/1013
ULAA 200500Z 10001MPS 8000 OVC008 M13/M14 Q1014 R08/490145 NOSIG RMK QFE760/1013
ULAA 200430Z 11002MPS 9999 OVC010 M13/M14 Q1014 R08/490145 NOSIG RMK QFE760/1013
ULAA 200400Z 12001MPS 9999 OVC011 M13/M14 Q1014 R08/490145 NOSIG RMK QFE760/1013
ULAA 200330Z 11003MPS 9999 OVC011 M13/M14 Q1014 R08/490145 NOSIG RMK QFE759/1013
ULAA 200300Z 11003MPS 9999 OVC011 M13/M15 Q1014 R08/490145 NOSIG RMK QFE760/1013
ULAA 200230Z 09003MPS 9999 OVC014 M13/M15 Q1015 R08/490145 NOSIG RMK QFE760/1014
ULAA 200200Z 09002MPS 9999 OVC014 M13/M15 Q1015 R08/490145 NOSIG RMK QFE760/1014
ULAA 200130Z 09003MPS 9999 OVC012 M13/M15 Q1015 R08/490145 NOSIG RMK QFE761/1014
ULAA 200100Z 09003MPS 9999 OVC013 M13/M15 Q1016 R08/490145 NOSIG RMK QFE761/1014